Time;durP1;ratioP1;P1;durP2;ratioP2;P2;SDS_P1;SDS_P2;PMS_P1;PMS_P2;Temp;Humidity;BMP_temperature;BMP_pressure;BME280_temperature;BME280_humidity;BME280_pressure;Samples;Min_cycle;Max_cycle;Signal;HPM_P1;HPM_P2
2021/11/06 07:22:17;;;;;;;6.27;4.60;;;0.40;99.90;;;;;;5172852;27;20298;-77
2021/11/06 07:24:43;;;;;;;6.73;4.50;;;0.50;99.90;;;;;;5153082;27;20484;-76
2021/11/06 07:27:09;;;;;;;6.27;4.83;;;0.50;99.90;;;;;;5152973;27;20170;-76
2021/11/06 07:29:36;;;;;;;8.10;5.77;;;0.80;99.90;;;;;;5134080;27;20632;-77
2021/11/06 07:32:03;;;;;;;9.00;6.50;;;0.70;99.90;;;;;;5152255;27;20436;-77
2021/11/06 07:34:29;;;;;;;8.00;6.10;;;0.80;99.90;;;;;;5150919;27;20441;-76
2021/11/06 07:36:55;;;;;;;8.90;6.80;;;1.00;99.90;;;;;;5151179;27;20872;-76
2021/11/06 07:39:20;;;;;;;9.10;6.97;;;1.10;99.90;;;;;;5152315;27;20462;-76
2021/11/06 07:41:46;;;;;;;10.50;6.87;;;1.20;99.90;;;;;;5133615;27;20210;-76
2021/11/06 07:44:12;;;;;;;13.23;8.13;;;1.20;99.90;;;;;;5152032;27;20370;-76
2021/11/06 07:46:39;;;;;;;26.67;13.47;;;1.40;99.90;;;;;;5152241;27;20174;-77
2021/11/06 07:49:05;;;;;;;15.70;8.37;;;1.70;99.90;;;;;;5133768;27;20547;-77
2021/11/06 07:51:31;;;;;;;10.30;6.83;;;1.80;99.90;;;;;;5150832;27;20759;-77
2021/11/06 07:53:57;;;;;;;6.70;6.00;;;2.30;99.90;;;;;;5151979;27;20439;-78
2021/11/06 07:56:23;;;;;;;8.83;5.43;;;2.90;99.90;;;;;;5152814;27;20174;-78
2021/11/06 07:58:49;;;;;;;9.10;6.13;;;3.60;99.90;;;;;;5151221;27;20820;-77
2021/11/06 08:01:15;;;;;;;22.80;17.27;;;4.20;99.90;;;;;;5134949;27;20481;-77
2021/11/06 08:03:41;;;;;;;6.03;5.43;;;4.70;99.90;;;;;;5133935;27;20562;-77
2021/11/06 08:06:07;;;;;;;4.93;4.37;;;5.00;99.90;;;;;;5135002;27;20178;-78
2021/11/06 08:08:33;;;;;;;6.67;5.60;;;5.20;99.90;;;;;;5153524;27;20178;-78
2021/11/06 08:10:59;;;;;;;5.10;4.53;;;5.50;99.90;;;;;;5132800;27;20178;-77
2021/11/06 08:13:25;;;;;;;5.97;5.00;;;5.70;99.90;;;;;;5150977;27;20616;-79
2021/11/06 08:15:51;;;;;;;5.57;5.07;;;6.10;99.90;;;;;;5134079;27;20548;-77
2021/11/06 08:18:17;;;;;;;5.53;4.60;;;6.70;99.90;;;;;;5154352;27;20181;-77
2021/11/06 08:20:43;;;;;;;4.80;4.30;;;7.10;99.90;;;;;;5152215;27;20207;-77
2021/11/06 08:23:08;;;;;;;4.20;3.80;;;7.40;99.90;;;;;;5133912;27;20267;-78
2021/11/06 08:25:34;;;;;;;5.23;4.27;;;7.60;99.90;;;;;;5152254;27;20754;-77
2021/11/06 08:28:00;;;;;;;4.30;3.90;;;7.20;99.90;;;;;;5152558;27;20662;-78
2021/11/06 08:30:27;;;;;;;6.67;4.00;;;6.70;99.90;;;;;;5152741;27;20186;-77
2021/11/06 08:32:56;;;;;;;6.30;5.37;;;6.50;99.90;;;;;;5124146;27;20263;-78
2021/11/06 08:35:25;;;;;;;4.37;3.93;;;6.50;99.90;;;;;;5137860;27;20584;-77
2021/11/06 08:37:51;;;;;;;5.53;4.60;;;6.90;99.90;;;;;;5119173;27;20179;-77
2021/11/06 08:40:17;;;;;;;7.37;4.47;;;7.30;99.90;;;;;;5137652;27;20652;-77
2021/11/06 08:42:43;;;;;;;4.10;3.70;;;7.70;99.90;;;;;;5137948;27;20212;-77
2021/11/06 08:45:12;;;;;;;3.93;3.53;;;8.00;99.90;;;;;;5138867;27;20624;-77
2021/11/06 08:47:38;;;;;;;4.40;4.00;;;8.30;99.90;;;;;;5142883;27;20201;-78
2021/11/06 08:50:07;;;;;;;4.53;3.70;;;8.60;99.90;;;;;;5138518;27;20197;-77
2021/11/06 08:52:33;;;;;;;4.40;4.00;;;8.80;99.90;;;;;;5138419;27;20607;-77
2021/11/06 08:54:59;;;;;;;4.37;3.97;;;9.00;99.90;;;;;;5119194;27;20179;-77
2021/11/06 08:57:25;;;;;;;4.87;4.37;;;8.90;99.90;;;;;;5138204;27;20505;-77
2021/11/06 08:59:54;;;;;;;4.40;4.00;;;9.00;99.90;;;;;;5138205;27;20643;-78
2021/11/06 09:02:20;;;;;;;5.10;4.20;;;8.70;99.90;;;;;;5120041;27;20565;-77
2021/11/06 09:04:49;;;;;;;4.23;3.77;;;8.90;99.90;;;;;;5138647;27;20180;-77
2021/11/06 09:07:16;;;;;;;5.10;4.23;;;9.10;99.90;;;;;;5137426;27;20174;-77
2021/11/06 09:09:42;;;;;;;6.37;4.43;;;9.10;99.90;;;;;;5137184;27;20621;-77
2021/11/06 09:12:08;;;;;;;5.00;4.50;;;9.40;99.90;;;;;;5118686;27;20184;-77
2021/11/06 09:14:34;;;;;;;6.10;5.50;;;9.70;99.90;;;;;;5118772;27;20187;-77
2021/11/06 09:16:59;;;;;;;6.13;5.53;;;9.60;99.90;;;;;;5137649;27;20202;-77
2021/11/06 09:19:25;;;;;;;6.00;5.40;;;9.70;99.90;;;;;;5137621;27;20172;-78
2021/11/06 09:21:51;;;;;;;8.27;6.00;;;9.70;99.90;;;;;;5118780;27;20623;-77
2021/11/06 09:24:18;;;;;;;5.20;4.70;;;10.00;99.90;;;;;;5137233;27;20200;-78
2021/11/06 09:26:44;;;;;;;6.50;5.90;;;10.20;99.90;;;;;;5119063;27;20174;-77
2021/11/06 09:29:12;;;;;;;6.23;5.63;;;10.30;99.90;;;;;;5137982;27;20573;-78
2021/11/06 09:31:39;;;;;;;6.60;6.00;;;10.10;99.90;;;;;;5137197;27;20202;-77
2021/11/06 09:34:05;;;;;;;6.47;5.87;;;9.60;99.90;;;;;;5118394;27;20195;-78
2021/11/06 09:36:32;;;;;;;6.70;6.00;;;9.10;99.90;;;;;;5118617;27;20186;-78
2021/11/06 09:39:01;;;;;;;6.30;5.70;;;8.60;99.90;;;;;;5135509;27;20656;-77
2021/11/06 09:41:26;;;;;;;6.60;5.90;;;8.10;99.90;;;;;;5135309;27;20574;-78
2021/11/06 09:43:53;;;;;;;6.63;5.57;;;7.60;99.90;;;;;;5135352;27;20195;-78
2021/11/06 09:46:19;;;;;;;8.57;6.17;;;6.70;99.90;;;;;;5134991;27;20272;-77
2021/11/06 09:48:46;;;;;;;6.57;5.70;;;6.50;99.90;;;;;;5136135;27;20628;-77
2021/11/06 09:51:14;;;;;;;10.13;5.63;;;7.00;99.90;;;;;;5117636;27;20672;-77
2021/11/06 09:53:42;;;;;;;25.53;7.67;;;7.90;99.90;;;;;;5134731;27;20290;-79
2021/11/06 09:56:09;;;;;;;5.80;5.20;;;8.90;99.90;;;;;;5135808;27;20177;-77
2021/11/06 09:58:37;;;;;;;6.97;5.80;;;9.70;99.90;;;;;;5136419;27;20178;-77
2021/11/06 10:01:04;;;;;;;22.90;6.80;;;9.90;99.90;;;;;;5137671;27;20179;-78
2021/11/06 10:03:30;;;;;;;46.57;11.03;;;9.70;99.90;;;;;;5134824;27;20695;-77
2021/11/06 10:05:59;;;;;;;12.83;6.10;;;9.80;99.90;;;;;;5136198;27;20175;-78
2021/11/06 10:08:30;;;;;;;24.03;7.13;;;9.80;99.90;;;;;;5134930;27;20682;-78
2021/11/06 10:11:00;;;;;;;62.97;11.03;;;9.90;99.90;;;;;;5117637;27;20233;-78
2021/11/06 10:13:25;;;;;;;20.90;7.67;;;10.00;99.90;;;;;;5136275;27;20222;-77
2021/11/06 10:15:56;;;;;;;25.57;6.70;;;10.50;99.90;;;;;;5136025;27;20202;-78
2021/11/06 10:18:27;;;;;;;7.50;5.20;;;10.70;99.90;;;;;;5136415;27;20172;-78
2021/11/06 10:21:01;;;;;;;89.10;10.13;;;10.90;99.90;;;;;;5136103;27;20231;-78
2021/11/06 10:23:37;;;;;;;5.43;4.93;;;11.20;99.90;;;;;;5136281;27;20656;-77
2021/11/06 10:26:11;;;;;;;11.03;5.53;;;11.70;99.90;;;;;;5135475;27;20252;-77
2021/11/06 10:28:37;;;;;;;78.57;10.37;;;12.10;99.90;;;;;;5135824;27;20184;-77
2021/11/06 10:31:04;;;;;;;29.27;6.97;;;12.50;99.90;;;;;;5136088;27;20207;-78
2021/11/06 10:33:30;;;;;;;15.90;5.70;;;12.60;99.90;;;;;;5134681;27;20218;-77
2021/11/06 10:35:59;;;;;;;4.30;3.90;;;12.40;99.90;;;;;;5117421;27;20184;-78
2021/11/06 10:38:28;;;;;;;8.23;4.43;;;12.60;99.90;;;;;;5117202;27;20258;-78
2021/11/06 10:40:59;;;;;;;4.90;4.40;;;12.60;99.90;;;;;;5135752;27;20175;-78
2021/11/06 10:43:26;;;;;;;5.40;4.87;;;12.30;99.90;;;;;;5134482;27;20218;-78
2021/11/06 10:46:00;;;;;;;4.43;4.00;;;12.20;99.90;;;;;;5136485;27;20175;-78
2021/11/06 10:48:33;;;;;;;5.93;4.40;;;12.30;99.90;;;;;;5139221;27;20544;-78
2021/11/06 10:51:07;;;;;;;4.87;4.33;;;12.50;99.90;;;;;;5146825;27;20679;-78
2021/11/06 10:53:48;;;;;;;4.60;4.10;;;12.80;99.90;;;;;;5146334;27;20186;-78
2021/11/06 10:56:13;;;;;;;4.60;4.20;;;12.90;99.90;;;;;;5141102;27;20169;-77
2021/11/06 10:58:40;;;;;;;4.53;4.17;;;12.70;99.90;;;;;;5136268;27;20632;-78
2021/11/06 11:01:09;;;;;;;4.47;4.07;;;12.60;99.90;;;;;;5135988;27;20182;-77
2021/11/06 11:03:40;;;;;;;3.90;3.60;;;11.70;99.90;;;;;;5136251;27;20194;-77
2021/11/06 11:06:14;;;;;;;5.37;4.87;;;11.00;99.90;;;;;;5136402;27;20258;-77
2021/11/06 11:08:48;;;;;;;5.10;4.60;;;10.00;99.90;;;;;;5134591;27;20622;-77
2021/11/06 11:11:19;;;;;;;4.47;4.07;;;9.40;99.90;;;;;;5135438;27;20190;-77
2021/11/06 11:13:49;;;;;;;12.87;5.00;;;10.10;99.90;;;;;;5135982;27;20221;-77
2021/11/06 11:16:16;;;;;;;4.23;3.83;;;10.70;99.90;;;;;;5135270;27;20174;-78
2021/11/06 11:18:43;;;;;;;34.13;6.20;;;11.80;99.90;;;;;;5136136;27;20167;-78
2021/11/06 11:21:09;;;;;;;11.77;4.77;;;11.70;99.90;;;;;;5136208;28;20555;-78
2021/11/06 11:23:36;;;;;;;10.43;4.47;;;11.40;99.90;;;;;;5136789;27;20244;-78
2021/11/06 11:26:03;;;;;;;5.23;4.73;;;12.40;99.90;;;;;;5137048;28;20698;-77
2021/11/06 11:28:29;;;;;;;5.10;4.23;;;12.60;99.90;;;;;;5133950;28;20545;-77
2021/11/06 11:30:54;;;;;;;4.87;4.47;;;12.50;99.90;;;;;;5134991;28;20203;-77
2021/11/06 11:33:20;;;;;;;4.93;4.43;;;12.50;99.90;;;;;;5134816;27;20196;-78
2021/11/06 11:35:47;;;;;;;5.07;4.63;;;12.60;99.90;;;;;;5134712;28;20180;-78
2021/11/06 11:38:13;;;;;;;4.93;4.43;;;11.90;99.90;;;;;;5134891;28;20172;-78
2021/11/06 11:40:52;;;;;;;4.80;4.30;;;11.00;99.90;;;;;;5135447;28;20238;-78
2021/11/06 11:43:25;;;;;;;4.63;4.23;;;10.40;99.90;;;;;;5134763;27;20203;-77
2021/11/06 11:46:00;;;;;;;5.80;4.50;;;10.00;99.90;;;;;;5134353;28;20164;-78
2021/11/06 11:48:28;;;;;;;5.30;4.83;;;9.90;99.90;;;;;;5134599;28;20172;-78
2021/11/06 11:51:02;;;;;;;5.40;4.90;;;10.60;99.90;;;;;;5134451;28;20207;-78
2021/11/06 11:53:32;;;;;;;5.97;5.37;;;11.20;99.90;;;;;;5134322;27;20194;-77
2021/11/06 11:56:06;;;;;;;7.17;6.23;;;11.40;99.90;;;;;;5134781;28;20235;-77
2021/11/06 11:58:38;;;;;;;6.30;5.27;;;10.70;99.90;;;;;;5116194;28;20570;-77
2021/11/06 12:01:05;;;;;;;7.43;5.93;;;10.70;99.90;;;;;;5133529;28;20199;-79
2021/11/06 12:03:41;;;;;;;6.47;5.87;;;10.50;99.90;;;;;;5133502;28;20210;-77
2021/11/06 12:06:25;;;;;;;6.60;6.00;;;10.50;99.90;;;;;;5134705;27;20246;-78
2021/11/06 12:09:24;;;;;;;6.60;5.83;;;10.60;99.90;;;;;;5137103;27;20178;-77
2021/11/06 12:11:51;;;;;;;6.27;5.67;;;12.10;99.90;;;;;;5138734;27;20191;-77
2021/11/06 12:14:21;;;;;;;6.40;5.77;;;12.40;99.90;;;;;;5138131;27;20219;-77
2021/11/06 12:16:48;;;;;;;6.53;5.83;;;12.70;99.90;;;;;;5138296;27;20174;-77
2021/11/06 12:19:40;;;;;;;6.77;6.17;;;12.00;99.90;;;;;;5138284;27;20254;-77
2021/11/06 12:22:18;;;;;;;6.80;6.10;;;12.40;99.90;;;;;;5119610;27;20661;-78
2021/11/06 12:24:49;;;;;;;6.70;6.10;;;13.30;99.90;;;;;;5138203;27;20171;-78
2021/11/06 12:27:17;;;;;;;7.87;6.17;;;13.70;99.90;;;;;;5139429;27;20164;-78
2021/11/06 12:29:54;;;;;;;7.83;7.03;;;13.40;99.90;;;;;;5137847;27;20184;-77
2021/11/06 12:32:23;;;;;;;7.50;6.80;;;12.90;99.90;;;;;;5138370;27;20210;-77
2021/11/06 12:34:54;;;;;;;8.50;7.60;;;13.80;99.90;;;;;;5138211;27;20172;-77
2021/11/06 12:37:38;;;;;;;7.83;7.13;;;14.00;99.90;;;;;;5119451;27;20586;-77
2021/11/06 12:40:05;;;;;;;8.37;7.57;;;13.50;99.90;;;;;;5119511;27;20224;-77
2021/11/06 12:42:31;;;;;;;7.50;6.80;;;12.20;99.90;;;;;;5137497;27;20195;-77
2021/11/06 12:45:02;;;;;;;8.47;7.60;;;12.00;99.90;;;;;;5137592;27;20183;-77
2021/11/06 12:47:30;;;;;;;7.97;7.27;;;10.50;99.90;;;;;;5136945;27;20499;-77
2021/11/06 12:49:57;;;;;;;8.10;7.30;;;9.60;99.90;;;;;;5137936;27;20269;-77
2021/11/06 12:52:25;;;;;;;7.90;7.10;;;10.90;99.90;;;;;;5137456;27;20213;-77
2021/11/06 12:55:03;;;;;;;35.90;9.33;;;12.20;99.90;;;;;;5118900;27;20186;-77
2021/11/06 12:57:40;;;;;;;11.20;7.07;;;13.50;99.90;;;;;;5138001;27;20155;-77
2021/11/06 13:00:09;;;;;;;9.17;7.03;;;13.90;99.90;;;;;;5136287;27;20575;-77
2021/11/06 13:02:50;;;;;;;18.93;7.47;;;14.70;99.90;;;;;;5137412;27;20236;-77
2021/11/06 13:05:16;;;;;;;8.40;7.50;;;15.20;99.90;;;;;;5137123;27;20211;-77
2021/11/06 13:07:42;;;;;;;9.10;7.97;;;14.30;99.90;;;;;;5118868;27;20214;-77
2021/11/06 13:10:27;;;;;;;10.23;8.33;;;13.30;99.90;;;;;;5137095;27;20647;-77
2021/11/06 13:13:24;;;;;;;8.83;7.93;;;12.00;99.90;;;;;;5137100;27;20248;-78
2021/11/06 13:15:51;;;;;;;14.10;9.40;;;10.80;99.90;;;;;;5136914;27;20151;-77
2021/11/06 13:18:18;;;;;;;13.17;9.43;;;9.70;99.90;;;;;;5136970;27;20220;-77
2021/11/06 13:20:47;;;;;;;11.70;9.23;;;9.30;99.90;;;;;;5137015;27;20195;-77
2021/11/06 13:23:13;;;;;;;11.57;8.73;;;9.00;99.90;;;;;;5136760;27;20198;-77
2021/11/06 13:25:44;;;;;;;14.00;9.50;;;8.90;99.90;;;;;;5135362;27;20183;-77
2021/11/06 13:28:14;;;;;;;13.93;9.90;;;8.90;99.90;;;;;;5135563;27;20223;-76
2021/11/06 13:30:55;;;;;;;11.83;9.27;;;8.70;99.90;;;;;;5136413;27;20285;-76
2021/11/06 13:33:27;;;;;;;12.87;9.87;;;8.50;99.90;;;;;;5118240;27;20210;-76
2021/11/06 13:35:57;;;;;;;13.87;10.43;;;8.40;99.90;;;;;;5136582;27;20160;-76
2021/11/06 13:38:26;;;;;;;13.20;10.07;;;8.20;99.90;;;;;;5136538;27;20163;-76
2021/11/06 13:41:03;;;;;;;12.40;9.73;;;8.00;99.90;;;;;;5117949;27;20180;-76
2021/11/06 13:43:50;;;;;;;63.73;16.00;;;7.90;99.90;;;;;;5117798;27;20197;-77
2021/11/06 13:46:25;;;;;;;13.53;10.03;;;7.80;99.90;;;;;;5136046;27;20262;-77
2021/11/06 13:49:05;;;;;;;14.50;10.90;;;7.60;99.90;;;;;;5117676;27;20162;-76
2021/11/06 13:51:38;;;;;;;14.73;11.07;;;7.60;99.90;;;;;;5136937;27;20193;-76
2021/11/06 13:54:27;;;;;;;14.93;10.87;;;7.70;99.90;;;;;;5135758;27;20189;-76
2021/11/06 13:57:04;;;;;;;16.43;11.37;;;7.70;99.90;;;;;;5117606;27;20167;-77
2021/11/06 13:59:42;;;;;;;18.40;11.50;;;7.80;99.90;;;;;;5136228;27;20598;-76
2021/11/06 14:02:34;;;;;;;15.80;11.10;;;7.70;99.90;;;;;;5135668;27;20594;-76
2021/11/06 14:05:25;;;;;;;16.37;11.20;;;7.70;99.90;;;;;;5103729;27;20623;-76
2021/11/06 14:07:54;;;;;;;14.93;11.27;;;7.70;99.90;;;;;;5116823;27;20188;-76
2021/11/06 14:10:29;;;;;;;13.47;10.43;;;7.90;99.90;;;;;;5135691;27;20199;-76
2021/11/06 14:13:06;;;;;;;17.97;11.23;;;8.20;99.90;;;;;;5117244;27;20194;-76
2021/11/06 14:15:45;;;;;;;16.53;12.30;;;8.50;99.90;;;;;;5135960;27;20185;-76
2021/11/06 14:18:14;;;;;;;16.93;11.23;;;8.60;99.90;;;;;;5117148;27;20650;-76
2021/11/06 14:20:48;;;;;;;14.63;11.50;;;8.50;99.90;;;;;;5135320;27;20187;-76
2021/11/06 14:23:27;;;;;;;14.80;10.77;;;8.30;99.90;;;;;;5116928;27;20204;-77
2021/11/06 14:25:53;;;;;;;15.70;11.20;;;8.10;99.90;;;;;;5135496;27;20183;-76
2021/11/06 14:28:23;;;;;;;13.97;10.70;;;8.10;99.90;;;;;;5116891;27;20180;-76
2021/11/06 14:31:11;;;;;;;18.50;11.27;;;7.90;99.90;;;;;;5135001;27;20202;-77
2021/11/06 14:33:39;;;;;;;16.17;11.47;;;7.90;99.90;;;;;;5116344;27;20231;-77
2021/11/06 14:36:23;;;;;;;16.83;12.33;;;7.90;99.90;;;;;;5135025;27;20179;-76
2021/11/06 14:38:52;;;;;;;17.00;12.27;;;7.70;99.90;;;;;;5135158;27;20251;-76
2021/11/06 14:41:23;;;;;;;17.67;12.87;;;7.60;99.90;;;;;;5135167;27;20251;-77
2021/11/06 14:44:05;;;;;;;18.27;13.33;;;7.40;99.90;;;;;;5135211;27;20537;-77
2021/11/06 14:46:44;;;;;;;15.40;11.70;;;7.20;99.90;;;;;;5135154;27;20557;-77
2021/11/06 14:49:10;;;;;;;16.77;12.30;;;6.90;99.90;;;;;;5116884;27;20186;-76
2021/11/06 14:52:12;;;;;;;27.23;16.90;;;6.70;99.90;;;;;;5134957;27;20539;-76
2021/11/06 14:54:55;;;;;;;20.20;14.40;;;6.50;99.90;;;;;;5064755;27;20583;-76
2021/11/06 14:57:26;;;;;;;24.47;14.63;;;6.20;99.90;;;;;;5134914;27;20198;-76
2021/11/06 15:00:12;;;;;;;23.37;14.97;;;6.10;99.90;;;;;;5116453;27;20175;-76
2021/11/06 15:02:42;;;;;;;21.73;15.37;;;5.90;99.90;;;;;;5116389;27;20195;-76
2021/11/06 15:05:09;;;;;;;20.27;14.80;;;5.90;99.90;;;;;;5116235;27;20167;-76
2021/11/06 15:07:38;;;;;;;21.07;15.30;;;5.80;99.90;;;;;;5116249;27;20174;-76
2021/11/06 15:10:07;;;;;;;21.10;14.80;;;5.80;99.90;;;;;;5134593;27;20170;-76
2021/11/06 15:12:33;;;;;;;24.20;16.13;;;5.70;99.90;;;;;;5134621;27;20428;-76
2021/11/06 15:14:58;;;;;;;22.63;15.63;;;5.70;99.90;;;;;;5134336;27;20951;-76
2021/11/06 15:17:24;;;;;;;23.37;17.00;;;5.60;99.90;;;;;;5116277;28;20277;-76
2021/11/06 15:19:50;;;;;;;24.60;17.33;;;5.60;99.90;;;;;;5116169;28;20204;-76
2021/11/06 15:22:24;;;;;;;25.97;18.07;;;5.50;99.90;;;;;;5115925;27;20182;-76
2021/11/06 15:24:51;;;;;;;23.70;16.53;;;5.40;99.90;;;;;;5134432;28;20159;-76
2021/11/06 15:27:17;;;;;;;27.60;18.33;;;5.30;99.90;;;;;;5116089;28;20423;-76
2021/11/06 15:29:42;;;;;;;31.57;17.70;;;5.20;99.90;;;;;;5134460;28;20171;-76
2021/11/06 15:32:12;;;;;;;27.67;17.90;;;5.20;99.90;;;;;;5134387;27;20194;-77
2021/11/06 15:34:37;;;;;;;31.23;18.67;;;5.20;99.90;;;;;;5134176;28;20181;-77
2021/11/06 15:37:03;;;;;;;29.70;20.30;;;5.10;99.90;;;;;;5134469;28;20416;-76
2021/11/06 15:39:29;;;;;;;30.03;19.73;;;5.10;99.90;;;;;;5115980;28;20182;-76
2021/11/06 15:41:55;;;;;;;31.47;19.93;;;5.10;99.90;;;;;;5116267;27;20600;-76
2021/11/06 15:44:22;;;;;;;31.90;20.13;;;5.20;99.90;;;;;;5138502;27;20522;-77
2021/11/06 15:46:47;;;;;;;32.97;21.47;;;5.10;99.90;;;;;;5138669;27;20443;-76
2021/11/06 15:49:14;;;;;;;39.40;23.53;;;5.10;99.90;;;;;;5138511;27;20440;-76
2021/11/06 15:54:13;;;;;;;29.77;18.87;;;5.00;99.90;;;;;;5138384;27;20504;-76
2021/11/06 15:56:40;;;;;;;36.03;23.20;;;4.90;99.90;;;;;;5138225;27;20940;-76
2021/11/06 15:59:08;;;;;;;33.83;22.27;;;4.90;99.90;;;;;;5138238;27;20433;-76
2021/11/06 16:01:34;;;;;;;32.30;22.67;;;4.80;99.90;;;;;;5119835;27;20416;-76
2021/11/06 16:04:00;;;;;;;40.53;23.73;;;4.80;99.90;;;;;;5119453;27;20443;-76
2021/11/06 16:06:26;;;;;;;38.07;24.87;;;4.80;99.90;;;;;;5138274;27;20419;-76
2021/11/06 16:08:52;;;;;;;37.93;24.33;;;4.70;99.90;;;;;;5138575;27;20469;-77
2021/11/06 16:11:18;;;;;;;38.90;26.03;;;4.70;99.90;;;;;;5119873;27;20203;-77
2021/11/06 16:13:44;;;;;;;45.67;30.33;;;4.60;99.90;;;;;;5139434;27;20944;-77
2021/11/06 16:16:13;;;;;;;45.10;28.70;;;4.50;99.90;;;;;;5122346;27;20217;-76
2021/11/06 16:18:42;;;;;;;38.00;25.47;;;4.60;99.90;;;;;;5120011;27;20171;-77
2021/11/06 16:21:11;;;;;;;38.60;26.23;;;4.50;99.90;;;;;;5137823;27;20428;-77
2021/11/06 16:23:36;;;;;;;46.03;30.60;;;4.50;99.90;;;;;;5137989;27;20427;-77
2021/11/06 16:26:02;;;;;;;48.23;31.67;;;4.50;99.90;;;;;;5137510;27;20980;-77
2021/11/06 16:28:29;;;;;;;48.27;28.60;;;4.50;99.90;;;;;;5137596;27;20171;-77
2021/11/06 16:30:55;;;;;;;39.40;25.57;;;4.50;99.90;;;;;;5137885;27;20198;-77
2021/11/06 16:33:22;;;;;;;40.07;27.07;;;4.50;99.90;;;;;;5137483;27;20428;-77
2021/11/06 16:35:47;;;;;;;46.13;28.80;;;4.50;99.90;;;;;;5118989;27;20182;-77
2021/11/06 16:38:13;;;;;;;152.77;64.63;;;4.40;99.90;;;;;;5138009;27;20408;-77
2021/11/06 16:40:39;;;;;;;246.93;93.83;;;4.40;99.90;;;;;;5118931;27;20178;-76
2021/11/06 16:43:06;;;;;;;237.37;91.07;;;4.30;99.90;;;;;;5137124;27;20186;-77
2021/11/06 16:45:33;;;;;;;95.57;48.37;;;4.40;99.90;;;;;;5137114;27;20914;-77
2021/11/06 16:48:00;;;;;;;94.00;47.67;;;4.30;99.90;;;;;;5137148;27;20396;-77
2021/11/06 16:50:26;;;;;;;84.97;44.77;;;4.30;99.90;;;;;;5137142;27;20532;-77
2021/11/06 16:52:52;;;;;;;56.37;31.97;;;4.40;99.90;;;;;;5107330;28;20930;-77
2021/11/06 16:55:18;;;;;;;43.40;26.70;;;4.20;99.90;;;;;;5115791;28;20180;-76
2021/11/06 16:57:45;;;;;;;39.97;26.40;;;4.30;99.90;;;;;;5081516;28;20538;-76
2021/11/06 17:00:15;;;;;;;37.87;24.77;;;4.30;99.90;;;;;;5097799;28;20905;-76
2021/11/06 17:02:45;;;;;;;38.20;25.13;;;4.30;99.90;;;;;;5115911;28;20480;-76
2021/11/06 17:05:15;;;;;;;43.20;28.27;;;4.40;99.90;;;;;;5115828;28;20876;-76
2021/11/06 17:07:45;;;;;;;45.13;28.83;;;4.30;99.90;;;;;;5097541;28;20417;-76
2021/11/06 17:12:41;;;;;;;42.87;27.70;;;4.40;99.90;;;;;;5116301;28;20417;-76
2021/11/06 17:15:07;;;;;;;46.03;31.73;;;4.40;99.90;;;;;;5115726;28;20412;-76
2021/11/06 17:17:33;;;;;;;53.43;39.83;;;4.50;99.90;;;;;;5116563;28;20405;-77
2021/11/06 17:19:59;;;;;;;44.53;30.43;;;4.50;99.90;;;;;;5116146;28;20406;-80
2021/11/06 17:22:25;;;;;;;44.27;28.53;;;4.50;99.90;;;;;;5097435;28;20440;-77
2021/11/06 17:24:50;;;;;;;45.07;31.63;;;4.60;99.90;;;;;;5115818;28;20171;-76
2021/11/06 17:27:17;;;;;;;56.57;40.40;;;4.60;99.90;;;;;;5097452;28;20229;-76
2021/11/06 17:29:42;;;;;;;44.57;28.17;;;4.70;99.90;;;;;;5116074;28;20172;-77
2021/11/06 17:32:09;;;;;;;45.57;28.93;;;4.70;99.90;;;;;;5115722;28;20505;-76
2021/11/06 17:34:36;;;;;;;38.33;24.67;;;4.70;99.90;;;;;;5115676;28;20174;-76
2021/11/06 17:37:03;;;;;;;33.87;23.00;;;4.50;99.90;;;;;;5115614;28;20402;-76
2021/11/06 17:39:29;;;;;;;33.83;21.43;;;4.70;99.90;;;;;;5115623;28;21030;-76
2021/11/06 17:41:54;;;;;;;33.30;19.70;;;4.70;99.90;;;;;;5115428;28;20421;-76
2021/11/06 17:44:20;;;;;;;35.67;22.87;;;4.70;99.90;;;;;;5097196;28;20237;-76
2021/11/06 17:46:47;;;;;;;32.63;20.90;;;4.80;99.90;;;;;;5097415;28;20666;-77
2021/11/06 17:49:17;;;;;;;36.10;22.77;;;4.70;99.90;;;;;;5116266;28;20172;-78
2021/11/06 17:51:54;;;;;;;30.27;20.10;;;4.70;99.90;;;;;;5115952;28;20449;-77
2021/11/06 17:54:20;;;;;;;33.63;21.90;;;4.70;99.90;;;;;;5115316;28;20424;-77
2021/11/06 17:56:46;;;;;;;52.87;31.93;;;4.70;99.90;;;;;;5115523;28;20404;-78
2021/11/06 17:59:12;;;;;;;45.77;27.73;;;4.70;99.90;;;;;;5097447;28;20168;-77
2021/11/06 18:01:41;;;;;;;38.10;21.80;;;4.60;99.90;;;;;;5115283;28;20535;-77
2021/11/06 18:04:07;;;;;;;34.27;19.43;;;4.60;99.90;;;;;;5114935;28;20241;-77
2021/11/06 18:06:33;;;;;;;40.50;27.63;;;4.60;99.90;;;;;;5114691;28;20414;-77
2021/11/06 18:08:58;;;;;;;47.37;34.23;;;4.70;99.90;;;;;;5096787;28;20224;-77
2021/11/06 18:11:24;;;;;;;41.17;28.13;;;4.60;99.90;;;;;;5096795;28;20298;-77
2021/11/06 18:13:50;;;;;;;42.23;29.40;;;4.50;99.90;;;;;;5096729;28;20599;-77
2021/11/06 18:16:16;;;;;;;62.03;43.97;;;4.60;99.90;;;;;;5096667;28;20198;-77
2021/11/06 18:18:42;;;;;;;46.07;30.40;;;4.60;99.90;;;;;;5114724;28;20259;-77
2021/11/06 18:21:07;;;;;;;31.07;20.17;;;4.50;99.90;;;;;;5096542;28;20445;-77
2021/11/06 18:23:33;;;;;;;36.77;21.67;;;4.60;99.90;;;;;;5096607;28;20278;-77
2021/11/06 18:25:59;;;;;;;35.97;21.00;;;4.60;99.90;;;;;;5115037;28;20219;-77
2021/11/06 18:28:25;;;;;;;31.40;21.03;;;4.60;99.90;;;;;;5115097;28;20182;-77
2021/11/06 18:30:50;;;;;;;38.00;23.20;;;4.60;99.90;;;;;;5115140;28;20199;-77
2021/11/06 18:33:16;;;;;;;48.30;33.03;;;4.50;99.90;;;;;;5116288;28;20195;-77
2021/11/06 18:35:42;;;;;;;35.13;23.87;;;4.40;99.90;;;;;;5114620;28;20163;-77
2021/11/06 18:38:08;;;;;;;31.17;20.73;;;4.40;99.90;;;;;;5114632;28;20254;-77
2021/11/06 18:40:34;;;;;;;32.23;21.53;;;4.50;99.90;;;;;;5115211;28;20302;-77
2021/11/06 18:42:59;;;;;;;32.63;21.47;;;4.50;99.90;;;;;;5115005;28;20453;-77
2021/11/06 18:45:32;;;;;;;34.00;21.10;;;4.50;99.90;;;;;;5114830;28;20171;-77
2021/11/06 18:48:00;;;;;;;31.80;21.77;;;4.50;99.90;;;;;;5114931;28;20163;-77
2021/11/06 18:50:27;;;;;;;35.83;21.90;;;4.60;99.90;;;;;;5114679;28;20796;-77
2021/11/06 18:52:53;;;;;;;38.87;23.23;;;4.60;99.90;;;;;;5096432;28;20433;-78
2021/11/06 18:55:19;;;;;;;33.30;22.90;;;4.50;99.90;;;;;;5114727;28;20813;-77
2021/11/06 18:57:48;;;;;;;30.20;21.00;;;4.50;99.90;;;;;;5116010;28;20168;-77
2021/11/06 19:00:14;;;;;;;32.80;21.30;;;4.50;99.90;;;;;;5097309;28;20168;-78
2021/11/06 19:02:40;;;;;;;73.63;38.73;;;4.60;99.90;;;;;;5115849;28;20471;-77
2021/11/06 19:05:07;;;;;;;40.97;24.87;;;4.60;99.90;;;;;;5115583;28;20926;-78
2021/11/06 19:07:33;;;;;;;39.40;23.57;;;4.50;99.90;;;;;;5100393;27;20499;-77
2021/11/06 19:09:58;;;;;;;35.43;23.03;;;4.50;99.90;;;;;;5135946;27;20488;-77
2021/11/06 19:12:24;;;;;;;35.63;23.30;;;4.50;99.90;;;;;;5135532;27;20226;-77
2021/11/06 19:14:50;;;;;;;38.40;22.87;;;4.40;99.90;;;;;;5117793;27;20175;-78
2021/11/06 19:17:16;;;;;;;32.83;20.47;;;4.50;99.90;;;;;;5113666;28;20182;-77
2021/11/06 19:19:42;;;;;;;33.53;21.20;;;4.30;99.90;;;;;;5115027;28;20790;-77
2021/11/06 19:22:08;;;;;;;35.07;22.43;;;4.40;99.90;;;;;;5096138;28;20214;-77
2021/11/06 19:24:34;;;;;;;31.53;19.87;;;4.30;99.90;;;;;;5096268;28;20414;-76
2021/11/06 19:29:54;;;;;;;31.63;20.07;;;4.10;99.90;;;;;;5093535;28;20711;-77
2021/11/06 19:32:20;;;;;;;32.43;20.33;;;4.00;99.90;;;;;;5096750;28;21005;-77
2021/11/06 19:34:46;;;;;;;33.50;20.80;;;4.20;99.90;;;;;;5114949;28;20405;-78
2021/11/06 19:37:12;;;;;;;33.47;21.37;;;4.20;99.90;;;;;;5115455;28;20167;-77
2021/11/06 19:39:39;;;;;;;36.17;23.00;;;4.20;99.90;;;;;;5115058;28;20178;-76
2021/11/06 19:42:05;;;;;;;39.20;23.93;;;4.20;99.90;;;;;;5123433;28;20409;-76
2021/11/06 19:44:31;;;;;;;40.17;23.63;;;4.10;99.90;;;;;;5114818;28;20429;-76
2021/11/06 19:47:00;;;;;;;33.77;21.03;;;4.10;99.90;;;;;;5114851;28;20505;-76
2021/11/06 19:49:27;;;;;;;34.60;20.50;;;4.10;99.90;;;;;;5115231;28;20417;-76
2021/11/06 19:51:54;;;;;;;35.83;21.77;;;4.00;99.90;;;;;;5115303;28;20445;-76
2021/11/06 19:54:20;;;;;;;34.17;21.90;;;4.00;99.90;;;;;;5114569;28;20457;-78
2021/11/06 19:56:46;;;;;;;50.40;33.07;;;3.90;99.90;;;;;;5096456;28;20413;-76
2021/11/06 19:59:14;;;;;;;34.70;22.00;;;4.00;99.90;;;;;;5114505;28;20488;-76
2021/11/06 20:01:41;;;;;;;32.10;20.67;;;3.90;99.90;;;;;;5116719;28;20536;-77
2021/11/06 20:04:07;;;;;;;34.10;21.67;;;3.90;99.90;;;;;;5104743;28;20429;-77
2021/11/06 20:06:33;;;;;;;33.63;20.67;;;3.90;99.90;;;;;;5120868;28;20404;-77
2021/11/06 20:08:59;;;;;;;34.20;22.07;;;3.90;99.90;;;;;;5134585;28;20177;-77
2021/11/06 20:11:28;;;;;;;34.30;21.73;;;3.90;99.90;;;;;;5134491;28;20206;-77
2021/11/06 20:13:56;;;;;;;34.37;20.70;;;3.90;99.90;;;;;;5119200;28;20425;-77
2021/11/06 20:16:21;;;;;;;31.87;21.07;;;3.80;99.90;;;;;;5095920;28;20417;-76
2021/11/06 20:18:47;;;;;;;32.87;20.47;;;3.80;99.90;;;;;;5097999;28;20752;-77
2021/11/06 20:21:13;;;;;;;39.93;23.50;;;3.80;99.90;;;;;;5124849;28;20191;-79